sensor_id;sensor_type;location;lat;lon;timestamp;P1;durP1;ratioP1;P2;durP2;ratioP2
45620;SDS011;31345;51.522;10.702;2023-08-06T00:01:54;4.05;;;1.85;;
45620;SDS011;31345;51.522;10.702;2023-08-06T00:04:22;3.65;;;2.10;;
45620;SDS011;31345;51.522;10.702;2023-08-06T00:06:49;3.58;;;2.15;;
45620;SDS011;31345;51.522;10.702;2023-08-06T00:09:22;4.28;;;2.15;;
45620;SDS011;31345;51.522;10.702;2023-08-06T00:11:56;4.40;;;1.98;;
45620;SDS011;31345;51.522;10.702;2023-08-06T00:14:23;4.00;;;1.88;;
45620;SDS011;31345;51.522;10.702;2023-08-06T00:16:51;6.00;;;2.25;;
45620;SDS011;31345;51.522;10.702;2023-08-06T00:19:18;3.88;;;2.42;;
45620;SDS011;31345;51.522;10.702;2023-08-06T00:21:46;3.28;;;2.40;;
45620;SDS011;31345;51.522;10.702;2023-08-06T00:24:13;3.95;;;2.20;;
45620;SDS011;31345;51.522;10.702;2023-08-06T00:26:46;4.75;;;2.22;;
45620;SDS011;31345;51.522;10.702;2023-08-06T00:29:20;3.75;;;2.20;;
45620;SDS011;31345;51.522;10.702;2023-08-06T00:31:53;3.75;;;2.25;;
45620;SDS011;31345;51.522;10.702;2023-08-06T00:34:21;4.38;;;2.72;;
45620;SDS011;31345;51.522;10.702;2023-08-06T00:36:53;3.85;;;2.70;;
45620;SDS011;31345;51.522;10.702;2023-08-06T00:39:26;3.83;;;2.67;;
45620;SDS011;31345;51.522;10.702;2023-08-06T00:41:53;4.43;;;2.50;;
45620;SDS011;31345;51.522;10.702;2023-08-06T00:44:28;4.10;;;3.35;;
45620;SDS011;31345;51.522;10.702;2023-08-06T00:46:55;7.80;;;4.88;;
45620;SDS011;31345;51.522;10.702;2023-08-06T00:49:23;6.47;;;4.10;;
45620;SDS011;31345;51.522;10.702;2023-08-06T00:51:56;5.82;;;4.50;;
45620;SDS011;31345;51.522;10.702;2023-08-06T00:54:24;8.98;;;4.50;;
45620;SDS011;31345;51.522;10.702;2023-08-06T00:56:53;5.18;;;4.30;;
45620;SDS011;31345;51.522;10.702;2023-08-06T00:59:27;6.85;;;4.97;;
45620;SDS011;31345;51.522;10.702;2023-08-06T01:02:01;7.88;;;5.47;;
45620;SDS011;31345;51.522;10.702;2023-08-06T01:04:28;7.25;;;6.00;;
45620;SDS011;31345;51.522;10.702;2023-08-06T01:07:03;7.20;;;5.30;;
45620;SDS011;31345;51.522;10.702;2023-08-06T01:09:43;6.15;;;4.97;;
45620;SDS011;31345;51.522;10.702;2023-08-06T01:12:18;8.90;;;6.28;;
45620;SDS011;31345;51.522;10.702;2023-08-06T01:15:05;9.02;;;6.45;;
45620;SDS011;31345;51.522;10.702;2023-08-06T01:17:43;7.07;;;5.32;;
45620;SDS011;31345;51.522;10.702;2023-08-06T01:20:17;8.73;;;5.90;;
45620;SDS011;31345;51.522;10.702;2023-08-06T01:22:51;8.40;;;6.78;;
45620;SDS011;31345;51.522;10.702;2023-08-06T01:25:26;6.88;;;5.25;;
45620;SDS011;31345;51.522;10.702;2023-08-06T01:27:57;7.85;;;6.32;;
45620;SDS011;31345;51.522;10.702;2023-08-06T01:30:33;7.38;;;5.68;;
45620;SDS011;31345;51.522;10.702;2023-08-06T01:33:13;5.85;;;5.20;;
45620;SDS011;31345;51.522;10.702;2023-08-06T01:35:46;7.10;;;5.38;;
45620;SDS011;31345;51.522;10.702;2023-08-06T01:38:22;6.15;;;4.70;;
45620;SDS011;31345;51.522;10.702;2023-08-06T01:40:55;6.30;;;4.00;;
45620;SDS011;31345;51.522;10.702;2023-08-06T01:43:28;4.95;;;3.50;;
45620;SDS011;31345;51.522;10.702;2023-08-06T01:46:01;5.65;;;3.75;;
45620;SDS011;31345;51.522;10.702;2023-08-06T01:48:29;4.97;;;3.67;;
45620;SDS011;31345;51.522;10.702;2023-08-06T01:51:03;4.35;;;3.20;;
45620;SDS011;31345;51.522;10.702;2023-08-06T01:53:38;5.13;;;2.75;;
45620;SDS011;31345;51.522;10.702;2023-08-06T01:56:05;3.10;;;2.50;;
45620;SDS011;31345;51.522;10.702;2023-08-06T01:58:33;3.47;;;2.63;;
45620;SDS011;31345;51.522;10.702;2023-08-06T02:01:07;3.30;;;2.38;;
45620;SDS011;31345;51.522;10.702;2023-08-06T02:03:39;4.50;;;2.40;;
45620;SDS011;31345;51.522;10.702;2023-08-06T02:06:12;3.50;;;2.20;;
45620;SDS011;31345;51.522;10.702;2023-08-06T02:08:41;3.22;;;2.47;;
45620;SDS011;31345;51.522;10.702;2023-08-06T02:11:13;3.72;;;2.75;;
45620;SDS011;31345;51.522;10.702;2023-08-06T02:13:41;5.13;;;2.90;;
45620;SDS011;31345;51.522;10.702;2023-08-06T02:16:13;3.92;;;2.95;;
45620;SDS011;31345;51.522;10.702;2023-08-06T02:18:45;5.10;;;3.25;;
45620;SDS011;31345;51.522;10.702;2023-08-06T02:21:13;6.28;;;3.05;;
45620;SDS011;31345;51.522;10.702;2023-08-06T02:23:47;6.05;;;2.78;;
45620;SDS011;31345;51.522;10.702;2023-08-06T02:26:20;5.72;;;2.80;;
45620;SDS011;31345;51.522;10.702;2023-08-06T02:28:52;4.07;;;2.60;;
45620;SDS011;31345;51.522;10.702;2023-08-06T02:31:20;4.35;;;2.92;;
45620;SDS011;31345;51.522;10.702;2023-08-06T02:33:53;4.90;;;2.55;;
45620;SDS011;31345;51.522;10.702;2023-08-06T02:36:21;5.00;;;2.90;;
45620;SDS011;31345;51.522;10.702;2023-08-06T02:38:50;4.55;;;2.70;;
45620;SDS011;31345;51.522;10.702;2023-08-06T02:41:22;4.63;;;3.13;;
45620;SDS011;31345;51.522;10.702;2023-08-06T02:43:55;5.25;;;3.72;;
45620;SDS011;31345;51.522;10.702;2023-08-06T02:46:23;6.05;;;3.35;;
45620;SDS011;31345;51.522;10.702;2023-08-06T02:48:51;5.07;;;3.42;;
45620;SDS011;31345;51.522;10.702;2023-08-06T02:51:23;5.88;;;3.45;;
45620;SDS011;31345;51.522;10.702;2023-08-06T02:53:57;8.00;;;4.32;;
45620;SDS011;31345;51.522;10.702;2023-08-06T02:56:25;5.30;;;4.65;;
45620;SDS011;31345;51.522;10.702;2023-08-06T02:59:25;7.57;;;3.70;;
45620;SDS011;31345;51.522;10.702;2023-08-06T03:02:08;5.60;;;4.50;;
45620;SDS011;31345;51.522;10.702;2023-08-06T03:04:50;12.68;;;6.68;;
45620;SDS011;31345;51.522;10.702;2023-08-06T03:07:20;7.32;;;6.20;;
45620;SDS011;31345;51.522;10.702;2023-08-06T03:09:55;7.95;;;6.65;;
45620;SDS011;31345;51.522;10.702;2023-08-06T03:12:28;9.13;;;7.00;;
45620;SDS011;31345;51.522;10.702;2023-08-06T03:14:57;11.63;;;7.22;;
45620;SDS011;31345;51.522;10.702;2023-08-06T03:17:30;8.90;;;6.80;;
45620;SDS011;31345;51.522;10.702;2023-08-06T03:20:03;9.00;;;7.35;;
45620;SDS011;31345;51.522;10.702;2023-08-06T03:22:33;9.60;;;7.20;;
45620;SDS011;31345;51.522;10.702;2023-08-06T03:25:07;9.25;;;7.20;;
45620;SDS011;31345;51.522;10.702;2023-08-06T03:27:41;10.55;;;7.60;;
45620;SDS011;31345;51.522;10.702;2023-08-06T03:30:16;7.70;;;6.65;;
45620;SDS011;31345;51.522;10.702;2023-08-06T03:32:48;8.88;;;7.43;;
45620;SDS011;31345;51.522;10.702;2023-08-06T03:35:19;7.13;;;6.32;;
45620;SDS011;31345;51.522;10.702;2023-08-06T03:37:47;9.10;;;7.57;;
45620;SDS011;31345;51.522;10.702;2023-08-06T03:40:22;11.90;;;7.88;;
45620;SDS011;31345;51.522;10.702;2023-08-06T03:42:55;10.70;;;7.60;;
45620;SDS011;31345;51.522;10.702;2023-08-06T03:45:23;8.20;;;7.32;;
45620;SDS011;31345;51.522;10.702;2023-08-06T03:47:55;9.02;;;7.50;;
45620;SDS011;31345;51.522;10.702;2023-08-06T03:50:23;9.65;;;8.30;;
45620;SDS011;31345;51.522;10.702;2023-08-06T03:52:51;8.93;;;7.97;;
45620;SDS011;31345;51.522;10.702;2023-08-06T03:55:19;10.10;;;7.90;;
45620;SDS011;31345;51.522;10.702;2023-08-06T03:57:48;10.95;;;8.05;;
45620;SDS011;31345;51.522;10.702;2023-08-06T04:00:15;10.55;;;8.48;;
45620;SDS011;31345;51.522;10.702;2023-08-06T04:02:48;10.10;;;7.57;;
45620;SDS011;31345;51.522;10.702;2023-08-06T04:05:16;10.73;;;7.07;;
45620;SDS011;31345;51.522;10.702;2023-08-06T04:07:49;10.13;;;7.30;;
45620;SDS011;31345;51.522;10.702;2023-08-06T04:10:21;10.95;;;7.47;;
45620;SDS011;31345;51.522;10.702;2023-08-06T04:12:55;11.90;;;8.00;;
45620;SDS011;31345;51.522;10.702;2023-08-06T04:15:23;9.30;;;7.78;;
45620;SDS011;31345;51.522;10.702;2023-08-06T04:17:55;9.43;;;7.72;;
45620;SDS011;31345;51.522;10.702;2023-08-06T04:20:24;10.35;;;8.10;;
45620;SDS011;31345;51.522;10.702;2023-08-06T04:22:57;10.43;;;7.63;;
45620;SDS011;31345;51.522;10.702;2023-08-06T04:25:24;11.52;;;8.00;;
45620;SDS011;31345;51.522;10.702;2023-08-06T04:27:58;11.10;;;7.85;;
45620;SDS011;31345;51.522;10.702;2023-08-06T04:30:26;10.60;;;8.40;;
45620;SDS011;31345;51.522;10.702;2023-08-06T04:32:54;9.90;;;7.30;;
45620;SDS011;31345;51.522;10.702;2023-08-06T04:35:29;9.25;;;7.13;;
45620;SDS011;31345;51.522;10.702;2023-08-06T04:37:56;9.23;;;7.03;;
45620;SDS011;31345;51.522;10.702;2023-08-06T04:40:24;8.93;;;7.32;;
45620;SDS011;31345;51.522;10.702;2023-08-06T04:43:00;8.38;;;7.22;;
45620;SDS011;31345;51.522;10.702;2023-08-06T04:45:30;7.60;;;6.82;;
45620;SDS011;31345;51.522;10.702;2023-08-06T04:47:58;9.98;;;7.40;;
45620;SDS011;31345;51.522;10.702;2023-08-06T04:50:30;8.60;;;7.03;;
45620;SDS011;31345;51.522;10.702;2023-08-06T04:52:58;8.45;;;7.15;;
45620;SDS011;31345;51.522;10.702;2023-08-06T04:55:25;7.93;;;5.90;;
45620;SDS011;31345;51.522;10.702;2023-08-06T04:57:53;8.68;;;6.63;;
45620;SDS011;31345;51.522;10.702;2023-08-06T05:00:27;7.18;;;6.32;;
45620;SDS011;31345;51.522;10.702;2023-08-06T05:03:00;9.48;;;6.30;;
45620;SDS011;31345;51.522;10.702;2023-08-06T05:05:27;9.52;;;6.43;;
45620;SDS011;31345;51.522;10.702;2023-08-06T05:08:00;9.20;;;6.95;;
45620;SDS011;31345;51.522;10.702;2023-08-06T05:10:28;7.55;;;6.20;;
45620;SDS011;31345;51.522;10.702;2023-08-06T05:13:01;8.05;;;5.82;;
45620;SDS011;31345;51.522;10.702;2023-08-06T05:15:35;8.05;;;6.07;;
45620;SDS011;31345;51.522;10.702;2023-08-06T05:18:02;8.35;;;5.85;;
45620;SDS011;31345;51.522;10.702;2023-08-06T05:20:30;7.70;;;6.47;;
45620;SDS011;31345;51.522;10.702;2023-08-06T05:23:03;8.05;;;5.65;;
45620;SDS011;31345;51.522;10.702;2023-08-06T05:25:31;9.65;;;5.78;;
45620;SDS011;31345;51.522;10.702;2023-08-06T05:28:03;6.57;;;4.97;;
45620;SDS011;31345;51.522;10.702;2023-08-06T05:30:40;10.88;;;5.43;;
45620;SDS011;31345;51.522;10.702;2023-08-06T05:33:07;6.90;;;5.35;;
45620;SDS011;31345;51.522;10.702;2023-08-06T05:35:35;5.78;;;4.97;;
45620;SDS011;31345;51.522;10.702;2023-08-06T05:38:02;6.85;;;4.70;;
45620;SDS011;31345;51.522;10.702;2023-08-06T05:40:35;8.38;;;5.38;;
45620;SDS011;31345;51.522;10.702;2023-08-06T05:43:08;7.38;;;4.82;;
45620;SDS011;31345;51.522;10.702;2023-08-06T05:45:45;6.85;;;5.30;;
45620;SDS011;31345;51.522;10.702;2023-08-06T05:48:18;6.10;;;5.25;;
45620;SDS011;31345;51.522;10.702;2023-08-06T05:50:51;5.95;;;5.03;;
45620;SDS011;31345;51.522;10.702;2023-08-06T05:53:23;5.88;;;5.18;;
45620;SDS011;31345;51.522;10.702;2023-08-06T05:55:52;6.45;;;4.80;;
45620;SDS011;31345;51.522;10.702;2023-08-06T05:58:25;8.85;;;5.32;;
45620;SDS011;31345;51.522;10.702;2023-08-06T06:01:01;5.85;;;4.85;;
45620;SDS011;31345;51.522;10.702;2023-08-06T06:03:34;5.82;;;4.85;;
45620;SDS011;31345;51.522;10.702;2023-08-06T06:06:02;7.60;;;5.13;;
45620;SDS011;31345;51.522;10.702;2023-08-06T06:08:30;5.88;;;5.03;;
45620;SDS011;31345;51.522;10.702;2023-08-06T06:11:02;7.70;;;5.18;;
45620;SDS011;31345;51.522;10.702;2023-08-06T06:13:35;7.20;;;4.72;;
45620;SDS011;31345;51.522;10.702;2023-08-06T06:16:09;6.85;;;4.55;;
45620;SDS011;31345;51.522;10.702;2023-08-06T06:18:41;7.13;;;5.18;;
45620;SDS011;31345;51.522;10.702;2023-08-06T06:21:14;5.90;;;4.82;;
45620;SDS011;31345;51.522;10.702;2023-08-06T06:23:41;5.13;;;4.55;;
45620;SDS011;31345;51.522;10.702;2023-08-06T06:26:09;6.55;;;4.82;;
45620;SDS011;31345;51.522;10.702;2023-08-06T06:28:37;5.60;;;5.00;;
45620;SDS011;31345;51.522;10.702;2023-08-06T06:31:11;8.70;;;5.20;;
45620;SDS011;31345;51.522;10.702;2023-08-06T06:33:43;5.10;;;4.57;;
45620;SDS011;31345;51.522;10.702;2023-08-06T06:36:16;5.85;;;3.50;;
45620;SDS011;31345;51.522;10.702;2023-08-06T06:38:48;5.03;;;4.05;;
45620;SDS011;31345;51.522;10.702;2023-08-06T06:41:21;4.97;;;3.78;;
45620;SDS011;31345;51.522;10.702;2023-08-06T06:43:53;5.82;;;3.70;;
45620;SDS011;31345;51.522;10.702;2023-08-06T06:46:23;4.65;;;3.22;;
45620;SDS011;31345;51.522;10.702;2023-08-06T06:48:55;6.00;;;3.35;;
45620;SDS011;31345;51.522;10.702;2023-08-06T06:51:28;7.47;;;3.58;;
45620;SDS011;31345;51.522;10.702;2023-08-06T06:53:58;6.53;;;3.50;;
45620;SDS011;31345;51.522;10.702;2023-08-06T06:56:31;3.85;;;3.03;;
45620;SDS011;31345;51.522;10.702;2023-08-06T06:59:04;3.53;;;2.88;;
45620;SDS011;31345;51.522;10.702;2023-08-06T07:01:38;4.45;;;3.08;;
45620;SDS011;31345;51.522;10.702;2023-08-06T07:04:10;3.75;;;2.65;;
45620;SDS011;31345;51.522;10.702;2023-08-06T07:06:43;3.60;;;3.15;;
45620;SDS011;31345;51.522;10.702;2023-08-06T07:09:15;5.63;;;2.80;;
45620;SDS011;31345;51.522;10.702;2023-08-06T07:11:48;3.22;;;2.47;;
45620;SDS011;31345;51.522;10.702;2023-08-06T07:14:21;4.72;;;2.60;;
45620;SDS011;31345;51.522;10.702;2023-08-06T07:16:50;4.45;;;2.50;;
45620;SDS011;31345;51.522;10.702;2023-08-06T07:19:23;3.65;;;2.70;;
45620;SDS011;31345;51.522;10.702;2023-08-06T07:21:55;3.13;;;2.30;;
45620;SDS011;31345;51.522;10.702;2023-08-06T07:24:28;3.65;;;2.58;;
45620;SDS011;31345;51.522;10.702;2023-08-06T07:26:55;2.83;;;2.22;;
45620;SDS011;31345;51.522;10.702;2023-08-06T07:29:28;3.90;;;2.78;;
45620;SDS011;31345;51.522;10.702;2023-08-06T07:32:02;4.70;;;2.58;;
45620;SDS011;31345;51.522;10.702;2023-08-06T07:34:35;4.05;;;2.80;;
45620;SDS011;31345;51.522;10.702;2023-08-06T07:37:07;5.65;;;2.78;;
45620;SDS011;31345;51.522;10.702;2023-08-06T07:39:40;6.57;;;3.13;;
45620;SDS011;31345;51.522;10.702;2023-08-06T07:42:10;4.03;;;2.90;;
45620;SDS011;31345;51.522;10.702;2023-08-06T07:44:38;4.07;;;2.75;;
45620;SDS011;31345;51.522;10.702;2023-08-06T07:47:12;4.20;;;2.78;;
45620;SDS011;31345;51.522;10.702;2023-08-06T07:49:44;4.13;;;2.80;;
45620;SDS011;31345;51.522;10.702;2023-08-06T07:52:17;4.65;;;2.72;;
45620;SDS011;31345;51.522;10.702;2023-08-06T07:54:50;4.40;;;2.90;;
45620;SDS011;31345;51.522;10.702;2023-08-06T07:57:24;3.67;;;2.90;;
45620;SDS011;31345;51.522;10.702;2023-08-06T07:59:57;4.70;;;3.20;;
45620;SDS011;31345;51.522;10.702;2023-08-06T08:02:30;3.83;;;2.97;;
45620;SDS011;31345;51.522;10.702;2023-08-06T08:05:03;6.43;;;3.10;;
45620;SDS011;31345;51.522;10.702;2023-08-06T08:07:38;4.15;;;2.92;;
45620;SDS011;31345;51.522;10.702;2023-08-06T08:10:06;4.28;;;3.13;;
45620;SDS011;31345;51.522;10.702;2023-08-06T08:12:39;3.90;;;2.83;;
45620;SDS011;31345;51.522;10.702;2023-08-06T08:15:12;4.00;;;2.90;;
45620;SDS011;31345;51.522;10.702;2023-08-06T08:17:46;3.92;;;2.47;;
45620;SDS011;31345;51.522;10.702;2023-08-06T08:20:19;4.65;;;3.08;;
45620;SDS011;31345;51.522;10.702;2023-08-06T08:22:52;4.43;;;2.85;;
45620;SDS011;31345;51.522;10.702;2023-08-06T08:25:25;3.35;;;2.60;;
45620;SDS011;31345;51.522;10.702;2023-08-06T08:27:53;3.45;;;2.38;;
45620;SDS011;31345;51.522;10.702;2023-08-06T08:30:25;3.50;;;2.65;;
45620;SDS011;31345;51.522;10.702;2023-08-06T08:32:59;3.65;;;2.72;;
45620;SDS011;31345;51.522;10.702;2023-08-06T08:35:32;3.10;;;2.03;;
45620;SDS011;31345;51.522;10.702;2023-08-06T08:38:01;4.57;;;2.38;;
45620;SDS011;31345;51.522;10.702;2023-08-06T08:40:31;3.42;;;2.65;;
45620;SDS011;31345;51.522;10.702;2023-08-06T08:43:00;3.40;;;2.40;;
45620;SDS011;31345;51.522;10.702;2023-08-06T08:45:30;3.90;;;2.63;;
45620;SDS011;31345;51.522;10.702;2023-08-06T08:48:08;4.40;;;2.60;;
45620;SDS011;31345;51.522;10.702;2023-08-06T08:50:39;3.17;;;2.47;;
45620;SDS011;31345;51.522;10.702;2023-08-06T08:53:08;3.13;;;2.42;;
45620;SDS011;31345;51.522;10.702;2023-08-06T08:55:43;3.42;;;2.30;;
45620;SDS011;31345;51.522;10.702;2023-08-06T08:58:18;3.30;;;2.13;;
45620;SDS011;31345;51.522;10.702;2023-08-06T09:00:51;8.20;;;2.33;;
45620;SDS011;31345;51.522;10.702;2023-08-06T09:03:21;4.75;;;2.13;;
45620;SDS011;31345;51.522;10.702;2023-08-06T09:05:50;4.25;;;2.22;;
45620;SDS011;31345;51.522;10.702;2023-08-06T09:08:24;4.50;;;2.35;;
45620;SDS011;31345;51.522;10.702;2023-08-06T09:11:01;3.15;;;2.13;;
45620;SDS011;31345;51.522;10.702;2023-08-06T09:13:35;3.60;;;2.33;;
45620;SDS011;31345;51.522;10.702;2023-08-06T09:16:09;3.53;;;2.47;;
45620;SDS011;31345;51.522;10.702;2023-08-06T09:18:43;4.07;;;2.38;;
45620;SDS011;31345;51.522;10.702;2023-08-06T09:21:16;5.32;;;2.15;;
45620;SDS011;31345;51.522;10.702;2023-08-06T09:23:49;2.70;;;1.88;;
45620;SDS011;31345;51.522;10.702;2023-08-06T09:26:21;5.78;;;2.50;;
45620;SDS011;31345;51.522;10.702;2023-08-06T09:28:56;2.72;;;1.88;;
45620;SDS011;31345;51.522;10.702;2023-08-06T09:31:32;4.47;;;2.30;;
45620;SDS011;31345;51.522;10.702;2023-08-06T09:34:06;2.92;;;2.05;;
45620;SDS011;31345;51.522;10.702;2023-08-06T09:36:43;2.95;;;2.17;;
45620;SDS011;31345;51.522;10.702;2023-08-06T09:39:19;4.68;;;2.13;;
45620;SDS011;31345;51.522;10.702;2023-08-06T09:41:55;4.55;;;2.15;;
45620;SDS011;31345;51.522;10.702;2023-08-06T09:44:29;4.55;;;2.33;;
45620;SDS011;31345;51.522;10.702;2023-08-06T09:46:59;4.57;;;2.28;;
45620;SDS011;31345;51.522;10.702;2023-08-06T09:49:43;4.10;;;2.00;;
45620;SDS011;31345;51.522;10.702;2023-08-06T09:52:16;4.15;;;2.33;;
45620;SDS011;31345;51.522;10.702;2023-08-06T09:54:49;3.20;;;1.85;;
45620;SDS011;31345;51.522;10.702;2023-08-06T09:57:18;3.83;;;2.05;;
45620;SDS011;31345;51.522;10.702;2023-08-06T09:59:52;6.93;;;2.15;;
45620;SDS011;31345;51.522;10.702;2023-08-06T10:02:25;5.65;;;2.00;;
45620;SDS011;31345;51.522;10.702;2023-08-06T10:05:00;3.53;;;1.92;;
45620;SDS011;31345;51.522;10.702;2023-08-06T10:07:34;4.07;;;1.77;;
45620;SDS011;31345;51.522;10.702;2023-08-06T10:10:08;2.88;;;1.75;;
45620;SDS011;31345;51.522;10.702;2023-08-06T10:12:37;3.60;;;1.80;;
45620;SDS011;31345;51.522;10.702;2023-08-06T10:15:13;2.53;;;1.88;;
45620;SDS011;31345;51.522;10.702;2023-08-06T10:20:19;4.05;;;1.60;;
45620;SDS011;31345;51.522;10.702;2023-08-06T10:22:59;3.75;;;1.50;;
45620;SDS011;31345;51.522;10.702;2023-08-06T10:25:30;3.45;;;1.50;;
45620;SDS011;31345;51.522;10.702;2023-08-06T10:27:59;3.80;;;1.73;;
45620;SDS011;31345;51.522;10.702;2023-08-06T10:30:32;2.67;;;1.60;;
45620;SDS011;31345;51.522;10.702;2023-08-06T10:33:05;4.93;;;1.60;;
45620;SDS011;31345;51.522;10.702;2023-08-06T10:35:37;4.07;;;1.50;;
45620;SDS011;31345;51.522;10.702;2023-08-06T10:38:15;2.92;;;1.42;;
45620;SDS011;31345;51.522;10.702;2023-08-06T10:40:49;4.07;;;1.48;;
45620;SDS011;31345;51.522;10.702;2023-08-06T10:43:33;3.42;;;1.45;;
45620;SDS011;31345;51.522;10.702;2023-08-06T10:46:08;3.17;;;1.50;;
45620;SDS011;31345;51.522;10.702;2023-08-06T10:48:38;3.53;;;1.13;;
45620;SDS011;31345;51.522;10.702;2023-08-06T10:51:13;2.90;;;1.42;;
45620;SDS011;31345;51.522;10.702;2023-08-06T10:53:47;2.60;;;1.30;;
45620;SDS011;31345;51.522;10.702;2023-08-06T10:56:22;3.17;;;1.40;;
45620;SDS011;31345;51.522;10.702;2023-08-06T10:58:52;2.28;;;1.33;;
45620;SDS011;31345;51.522;10.702;2023-08-06T11:01:21;2.63;;;1.52;;
45620;SDS011;31345;51.522;10.702;2023-08-06T11:03:54;2.42;;;1.58;;
45620;SDS011;31345;51.522;10.702;2023-08-06T11:06:29;2.92;;;1.98;;
45620;SDS011;31345;51.522;10.702;2023-08-06T11:08:56;3.08;;;1.52;;
45620;SDS011;31345;51.522;10.702;2023-08-06T11:11:29;3.15;;;1.60;;
45620;SDS011;31345;51.522;10.702;2023-08-06T11:14:01;4.40;;;1.95;;
45620;SDS011;31345;51.522;10.702;2023-08-06T11:16:34;2.33;;;1.42;;
45620;SDS011;31345;51.522;10.702;2023-08-06T11:19:02;3.60;;;1.55;;
45620;SDS011;31345;51.522;10.702;2023-08-06T11:21:31;2.88;;;1.50;;
45620;SDS011;31345;51.522;10.702;2023-08-06T11:24:04;4.72;;;1.52;;
45620;SDS011;31345;51.522;10.702;2023-08-06T11:26:37;3.67;;;1.33;;
45620;SDS011;31345;51.522;10.702;2023-08-06T11:29:11;3.58;;;1.50;;
45620;SDS011;31345;51.522;10.702;2023-08-06T11:31:38;1.88;;;1.30;;
45620;SDS011;31345;51.522;10.702;2023-08-06T11:34:06;3.90;;;1.58;;
45620;SDS011;31345;51.522;10.702;2023-08-06T11:36:40;3.13;;;1.58;;
45620;SDS011;31345;51.522;10.702;2023-08-06T11:39:13;2.28;;;1.40;;
45620;SDS011;31345;51.522;10.702;2023-08-06T11:41:41;2.60;;;1.70;;
45620;SDS011;31345;51.522;10.702;2023-08-06T11:44:11;4.32;;;1.70;;
45620;SDS011;31345;51.522;10.702;2023-08-06T11:46:51;4.32;;;1.90;;
45620;SDS011;31345;51.522;10.702;2023-08-06T11:49:36;2.30;;;1.50;;
45620;SDS011;31345;51.522;10.702;2023-08-06T11:52:10;4.40;;;1.40;;
45620;SDS011;31345;51.522;10.702;2023-08-06T11:54:40;3.70;;;1.63;;
45620;SDS011;31345;51.522;10.702;2023-08-06T11:57:12;4.00;;;1.60;;
45620;SDS011;31345;51.522;10.702;2023-08-06T11:59:40;3.55;;;1.50;;
45620;SDS011;31345;51.522;10.702;2023-08-06T12:02:13;2.42;;;1.40;;
45620;SDS011;31345;51.522;10.702;2023-08-06T12:07:38;2.75;;;1.73;;
45620;SDS011;31345;51.522;10.702;2023-08-06T12:10:07;2.40;;;1.42;;
45620;SDS011;31345;51.522;10.702;2023-08-06T12:12:41;2.33;;;1.38;;
45620;SDS011;31345;51.522;10.702;2023-08-06T12:15:09;3.72;;;1.80;;
45620;SDS011;31345;51.522;10.702;2023-08-06T12:17:42;2.08;;;1.48;;
45620;SDS011;31345;51.522;10.702;2023-08-06T12:20:14;3.03;;;1.10;;
45620;SDS011;31345;51.522;10.702;2023-08-06T12:22:49;2.20;;;1.50;;
45620;SDS011;31345;51.522;10.702;2023-08-06T12:25:16;3.70;;;1.55;;
45620;SDS011;31345;51.522;10.702;2023-08-06T12:27:49;1.98;;;1.17;;
45620;SDS011;31345;51.522;10.702;2023-08-06T12:30:21;2.35;;;1.52;;
45620;SDS011;31345;51.522;10.702;2023-08-06T12:32:49;2.97;;;1.58;;
45620;SDS011;31345;51.522;10.702;2023-08-06T12:35:23;2.30;;;1.42;;
45620;SDS011;31345;51.522;10.702;2023-08-06T12:37:53;3.17;;;1.58;;
45620;SDS011;31345;51.522;10.702;2023-08-06T12:40:28;2.42;;;1.20;;
45620;SDS011;31345;51.522;10.702;2023-08-06T12:43:00;2.83;;;1.50;;
45620;SDS011;31345;51.522;10.702;2023-08-06T12:45:33;2.45;;;1.08;;
45620;SDS011;31345;51.522;10.702;2023-08-06T12:48:06;4.88;;;1.58;;
45620;SDS011;31345;51.522;10.702;2023-08-06T12:50:38;1.88;;;1.40;;
45620;SDS011;31345;51.522;10.702;2023-08-06T12:53:12;2.95;;;1.20;;
45620;SDS011;31345;51.522;10.702;2023-08-06T12:55:41;3.03;;;1.25;;
45620;SDS011;31345;51.522;10.702;2023-08-06T12:58:14;3.25;;;1.20;;
45620;SDS011;31345;51.522;10.702;2023-08-06T13:00:41;3.42;;;1.58;;
45620;SDS011;31345;51.522;10.702;2023-08-06T13:03:14;3.38;;;1.25;;
45620;SDS011;31345;51.522;10.702;2023-08-06T13:05:41;1.88;;;1.20;;
45620;SDS011;31345;51.522;10.702;2023-08-06T13:08:10;3.72;;;1.58;;
45620;SDS011;31345;51.522;10.702;2023-08-06T13:10:44;2.67;;;1.63;;
45620;SDS011;31345;51.522;10.702;2023-08-06T13:13:16;3.03;;;1.75;;
45620;SDS011;31345;51.522;10.702;2023-08-06T13:15:49;2.00;;;1.35;;
45620;SDS011;31345;51.522;10.702;2023-08-06T13:18:17;2.08;;;1.40;;
45620;SDS011;31345;51.522;10.702;2023-08-06T13:20:52;2.40;;;1.27;;
45620;SDS011;31345;51.522;10.702;2023-08-06T13:23:20;3.28;;;1.70;;
45620;SDS011;31345;51.522;10.702;2023-08-06T13:25:54;2.55;;;1.60;;
45620;SDS011;31345;51.522;10.702;2023-08-06T13:28:21;4.05;;;1.80;;
45620;SDS011;31345;51.522;10.702;2023-08-06T13:30:54;2.45;;;1.77;;
45620;SDS011;31345;51.522;10.702;2023-08-06T13:33:27;4.00;;;1.58;;
45620;SDS011;31345;51.522;10.702;2023-08-06T13:35:54;3.20;;;1.65;;
45620;SDS011;31345;51.522;10.702;2023-08-06T13:38:22;2.35;;;1.42;;
45620;SDS011;31345;51.522;10.702;2023-08-06T13:40:50;2.22;;;1.70;;
45620;SDS011;31345;51.522;10.702;2023-08-06T13:43:24;3.97;;;1.70;;
45620;SDS011;31345;51.522;10.702;2023-08-06T13:45:52;3.53;;;1.73;;
45620;SDS011;31345;51.522;10.702;2023-08-06T13:48:19;2.42;;;1.40;;
45620;SDS011;31345;51.522;10.702;2023-08-06T13:50:47;4.40;;;1.65;;
45620;SDS011;31345;51.522;10.702;2023-08-06T13:53:20;2.88;;;1.65;;
45620;SDS011;31345;51.522;10.702;2023-08-06T13:55:52;2.63;;;1.50;;
45620;SDS011;31345;51.522;10.702;2023-08-06T13:58:26;3.30;;;1.70;;
45620;SDS011;31345;51.522;10.702;2023-08-06T14:00:59;2.30;;;1.65;;
45620;SDS011;31345;51.522;10.702;2023-08-06T14:03:32;2.65;;;1.50;;
45620;SDS011;31345;51.522;10.702;2023-08-06T14:06:04;3.63;;;1.65;;
45620;SDS011;31345;51.522;10.702;2023-08-06T14:08:32;4.30;;;2.10;;
45620;SDS011;31345;51.522;10.702;2023-08-06T14:11:05;5.20;;;1.70;;
45620;SDS011;31345;51.522;10.702;2023-08-06T14:13:39;3.60;;;2.13;;
45620;SDS011;31345;51.522;10.702;2023-08-06T14:16:09;4.30;;;1.90;;
45620;SDS011;31345;51.522;10.702;2023-08-06T14:18:44;5.50;;;1.90;;
45620;SDS011;31345;51.522;10.702;2023-08-06T14:21:19;4.07;;;1.88;;
45620;SDS011;31345;51.522;10.702;2023-08-06T14:23:50;5.25;;;2.00;;
45620;SDS011;31345;51.522;10.702;2023-08-06T14:26:22;6.68;;;2.15;;
45620;SDS011;31345;51.522;10.702;2023-08-06T14:28:52;3.45;;;2.13;;
45620;SDS011;31345;51.522;10.702;2023-08-06T14:31:25;3.75;;;2.00;;
45620;SDS011;31345;51.522;10.702;2023-08-06T14:33:58;3.83;;;2.00;;
45620;SDS011;31345;51.522;10.702;2023-08-06T14:36:26;3.03;;;1.90;;
45620;SDS011;31345;51.522;10.702;2023-08-06T14:38:53;3.72;;;1.80;;
45620;SDS011;31345;51.522;10.702;2023-08-06T14:41:26;5.38;;;2.20;;
45620;SDS011;31345;51.522;10.702;2023-08-06T14:43:55;4.13;;;1.90;;
45620;SDS011;31345;51.522;10.702;2023-08-06T14:46:28;8.20;;;2.38;;
45620;SDS011;31345;51.522;10.702;2023-08-06T14:49:00;4.43;;;1.98;;
45620;SDS011;31345;51.522;10.702;2023-08-06T14:51:33;6.45;;;2.65;;
45620;SDS011;31345;51.522;10.702;2023-08-06T14:54:06;3.25;;;2.00;;
45620;SDS011;31345;51.522;10.702;2023-08-06T14:56:34;5.35;;;2.45;;
45620;SDS011;31345;51.522;10.702;2023-08-06T14:59:03;4.43;;;2.30;;
45620;SDS011;31345;51.522;10.702;2023-08-06T15:01:30;3.55;;;2.22;;
45620;SDS011;31345;51.522;10.702;2023-08-06T15:04:03;5.85;;;2.00;;
45620;SDS011;31345;51.522;10.702;2023-08-06T15:06:35;4.35;;;2.40;;